Den Burg, Netherlands
Current Conditions -  °F | °C
As of 7:25 AM on Wednesday 22 Oct 2014 (Local Time) from EHKD Reporting Station
Broken Clouds Broken Clouds  
Wind Chill: 50°   Ceiling: 3000
Heat Index: 50°   Visibility: 6mi
Dew Point: 43°   Wind: 22mph
Humidity: 76%   Direction: 310°NW
Pressure: 29.91"   Gusts: NA
Location:  53.05°N, 4.8°E
Report Text: EHKD 220525Z AUTO 31019KT 9999 FEW015TCU SCT055 10/06 Q1013 RERA BLU 31025G40KT 9999 FEW020 BKN030 TEMPO 4500 -SHRA FEW015 SCT020CB BKN030
Loading
Personal Weather Stations






























Interactive Weather Map
Tropical Storm Tracking
New forecast layout! Learn more

10-Day Weather Forecast

Advertisements
Track Severe Weather on mobile